Terminal Aerodrome Forecast
Issued by NWS Portland, ME

Home | Current Version | Previous Version | Text Only | Print | Product List | Glossary On
Versions: 1 2 3 4 5 6 7 8 9 10 11 12 13 14 15 16 17 18 19 20 21 22 23 24 25 26
000
FTUS41 KGYX 221335 AAA
TAFPWM
TAF AMD
KPWM 221335Z 2214/2312 03015KT 2SM -RA BR OVC009 WS020/02045KT
     FM222100 02020G30KT 4SM -RA BR OVC003 WS020/02050KT
     FM230600 01025G33KT 4SM -RA BR OVC003=

USA.gov is the U.S. government's official web portal to all federal, state and local government web resources and services.